CheckWX is a tool to help pilots better visualize weather data.  It is not intended as a substitute for an official pre-flight weather briefing.

10:06:09 UTC

1K1 METAR
Lloyd Stearman Field Airport
Benton, Kansas, USA
Current

11 mins ago

K1K1 190955Z AUTO 10003KT 10SM CLR 23/23 A2993 RMK AO2 T02310225
Observed
Aug-19 @ 09:55 UTC
Wind
  • 100° at 3 KTS
Visibility
10 SM
Flight Rules
VFR
Cloud Levels
  • Clear skies
Temperature
23°C / 73°F
Dewpoint
23°C / 73°F
Humidity
100%
Altimeter
29.93" Hg
Pressure
1013.52 hPa
Previous

31 mins ago

K1K1 190935Z AUTO 12003KT 10SM CLR 24/23 A2993 RMK AO2 T02350226
Observed
Aug-19 @ 09:35 UTC
Wind
  • 120° at 3 KTS
Visibility
10 SM
Flight Rules
VFR
Cloud Levels
  • Clear skies
Temperature
24°C / 75°F
Dewpoint
23°C / 73°F
Humidity
94%
Altimeter
29.93" Hg
Pressure
1013.52 hPa
Previous

51 mins ago

K1K1 190915Z AUTO 12004KT 10SM CLR 24/23 A2993 RMK AO2 T02350228
Observed
Aug-19 @ 09:15 UTC
Wind
  • 120° at 4 KTS
Visibility
10 SM
Flight Rules
VFR
Cloud Levels
  • Clear skies
Temperature
24°C / 75°F
Dewpoint
23°C / 73°F
Humidity
94%
Altimeter
29.93" Hg
Pressure
1013.52 hPa